sensor_id;sensor_type;location;lat;lon;timestamp;pressure;altitude;pressure_sealevel;temperature;humidity
71764;BME280;59602;52.142;5.408;2023-02-12T00:01:11;103998.50;;;7.68;89.88
71764;BME280;59602;52.142;5.408;2023-02-12T00:03:39;104000.91;;;7.70;89.38
71764;BME280;59602;52.142;5.408;2023-02-12T00:06:07;103999.59;;;7.67;89.44
71764;BME280;59602;52.142;5.408;2023-02-12T00:08:35;103999.59;;;7.67;89.48
71764;BME280;59602;52.142;5.408;2023-02-12T00:11:09;104000.69;;;7.66;89.58
71764;BME280;59602;52.142;5.408;2023-02-12T00:13:36;103999.91;;;7.66;89.68
71764;BME280;59602;52.142;5.408;2023-02-12T00:16:05;103998.25;;;7.65;89.67
71764;BME280;59602;52.142;5.408;2023-02-12T00:18:31;103992.03;;;7.64;89.64
71764;BME280;59602;52.142;5.408;2023-02-12T00:20:59;103992.03;;;7.64;89.42
71764;BME280;59602;52.142;5.408;2023-02-12T00:23:26;103988.00;;;7.62;89.49
71764;BME280;59602;52.142;5.408;2023-02-12T00:25:53;103998.81;;;7.62;89.62
71764;BME280;59602;52.142;5.408;2023-02-12T00:28:20;103996.13;;;7.62;89.52
71764;BME280;59602;52.142;5.408;2023-02-12T00:30:47;104001.53;;;7.62;89.49
71764;BME280;59602;52.142;5.408;2023-02-12T00:33:13;103999.91;;;7.61;89.84
71764;BME280;59602;52.142;5.408;2023-02-12T00:35:40;103998.81;;;7.62;89.90
71764;BME280;59602;52.142;5.408;2023-02-12T00:38:07;103999.63;;;7.62;89.70
71764;BME280;59602;52.142;5.408;2023-02-12T00:40:33;103994.50;;;7.61;89.35
71764;BME280;59602;52.142;5.408;2023-02-12T00:42:59;103997.19;;;7.61;89.71
71764;BME280;59602;52.142;5.408;2023-02-12T00:45:26;103991.25;;;7.64;89.43
71764;BME280;59602;52.142;5.408;2023-02-12T00:47:53;103988.81;;;7.62;89.56
71764;BME280;59602;52.142;5.408;2023-02-12T00:50:19;103993.41;;;7.62;89.32
71764;BME280;59602;52.142;5.408;2023-02-12T00:52:46;103990.19;;;7.60;89.52
71764;BME280;59602;52.142;5.408;2023-02-12T00:55:12;103994.78;;;7.59;89.42
71764;BME280;59602;52.142;5.408;2023-02-12T00:57:39;103995.59;;;7.60;89.77
71764;BME280;59602;52.142;5.408;2023-02-12T01:00:06;103996.41;;;7.60;89.51
71764;BME280;59602;52.142;5.408;2023-02-12T01:02:33;103988.84;;;7.57;89.44
71764;BME280;59602;52.142;5.408;2023-02-12T01:05:00;103993.16;;;7.58;89.67
71764;BME280;59602;52.142;5.408;2023-02-12T01:07:26;103992.09;;;7.59;89.72
71764;BME280;59602;52.142;5.408;2023-02-12T01:09:53;103999.66;;;7.57;89.30
71764;BME280;59602;52.142;5.408;2023-02-12T01:12:19;103998.03;;;7.56;89.71
71764;BME280;59602;52.142;5.408;2023-02-12T01:14:46;104003.44;;;7.56;89.38
71764;BME280;59602;52.142;5.408;2023-02-12T01:17:13;103999.41;;;7.54;89.68
71764;BME280;59602;52.142;5.408;2023-02-12T01:19:39;103998.63;;;7.53;89.64
71764;BME280;59602;52.142;5.408;2023-02-12T01:22:06;103994.00;;;7.54;89.89
71764;BME280;59602;52.142;5.408;2023-02-12T01:24:32;104001.03;;;7.55;89.65
71764;BME280;59602;52.142;5.408;2023-02-12T01:26:59;103995.91;;;7.53;89.73
71764;BME280;59602;52.142;5.408;2023-02-12T01:29:25;103991.56;;;7.52;89.81
71764;BME280;59602;52.142;5.408;2023-02-12T01:31:52;103994.25;;;7.52;89.45
71764;BME280;59602;52.142;5.408;2023-02-12T01:34:18;103996.72;;;7.54;89.61
71764;BME280;59602;52.142;5.408;2023-02-12T01:36:45;103999.69;;;7.52;89.88
71764;BME280;59602;52.142;5.408;2023-02-12T01:39:13;103992.66;;;7.51;89.76
71764;BME280;59602;52.142;5.408;2023-02-12T01:41:42;103998.06;;;7.51;89.96
71764;BME280;59602;52.142;5.408;2023-02-12T01:44:12;103995.63;;;7.49;89.89
71764;BME280;59602;52.142;5.408;2023-02-12T01:46:40;103995.94;;;7.48;89.76
71764;BME280;59602;52.142;5.408;2023-02-12T01:49:12;103998.66;;;7.48;90.04
71764;BME280;59602;52.142;5.408;2023-02-12T01:51:40;103994.84;;;7.49;90.02
71764;BME280;59602;52.142;5.408;2023-02-12T01:54:10;103997.81;;;7.47;90.07
71764;BME280;59602;52.142;5.408;2023-02-12T01:56:39;103998.66;;;7.48;89.66
71764;BME280;59602;52.142;5.408;2023-02-12T01:59:06;104000.81;;;7.46;90.05
71764;BME280;59602;52.142;5.408;2023-02-12T02:01:33;103994.56;;;7.45;89.92
71764;BME280;59602;52.142;5.408;2023-02-12T02:04:04;103985.94;;;7.43;89.70
71764;BME280;59602;52.142;5.408;2023-02-12T02:06:36;103994.34;;;7.42;90.14
71764;BME280;59602;52.142;5.408;2023-02-12T02:09:05;103991.09;;;7.40;89.87
71764;BME280;59602;52.142;5.408;2023-02-12T02:11:31;103986.81;;;7.34;90.05
71764;BME280;59602;52.142;5.408;2023-02-12T02:14:17;103990.06;;;7.31;89.98
71764;BME280;59602;52.142;5.408;2023-02-12T02:17:07;103993.84;;;7.30;90.14
71764;BME280;59602;52.142;5.408;2023-02-12T02:22:40;103993.34;;;7.22;89.78
71764;BME280;59602;52.142;5.408;2023-02-12T02:28:04;103992.31;;;7.13;89.60
71764;BME280;59602;52.142;5.408;2023-02-12T02:30:47;103989.34;;;7.10;89.91
71764;BME280;59602;52.142;5.408;2023-02-12T02:33:38;103989.91;;;7.06;90.24
71764;BME280;59602;52.142;5.408;2023-02-12T02:36:24;103988.00;;;7.07;90.30
71764;BME280;59602;52.142;5.408;2023-02-12T02:38:59;103983.69;;;7.06;90.09
71764;BME280;59602;52.142;5.408;2023-02-12T02:41:45;103973.94;;;7.05;90.31
71764;BME280;59602;52.142;5.408;2023-02-12T02:44:17;103976.13;;;7.03;90.56
71764;BME280;59602;52.142;5.408;2023-02-12T02:46:47;103978.03;;;7.02;90.59
71764;BME280;59602;52.142;5.408;2023-02-12T02:49:24;103980.50;;;6.99;90.45
71764;BME280;59602;52.142;5.408;2023-02-12T02:52:02;103975.88;;;6.99;90.88
71764;BME280;59602;52.142;5.408;2023-02-12T02:54:35;103973.44;;;6.98;90.79
71764;BME280;59602;52.142;5.408;2023-02-12T02:57:25;103971.00;;;6.96;90.62
71764;BME280;59602;52.142;5.408;2023-02-12T03:00:00;103975.63;;;6.96;90.94
71764;BME280;59602;52.142;5.408;2023-02-12T03:02:32;103971.31;;;6.95;91.00
71764;BME280;59602;52.142;5.408;2023-02-12T03:05:04;103966.69;;;6.95;90.84
71764;BME280;59602;52.142;5.408;2023-02-12T03:07:36;103969.13;;;6.92;91.25
71764;BME280;59602;52.142;5.408;2023-02-12T03:10:11;103970.22;;;6.91;91.15
71764;BME280;59602;52.142;5.408;2023-02-12T03:12:49;103962.66;;;6.88;91.25
71764;BME280;59602;52.142;5.408;2023-02-12T03:15:23;103962.16;;;6.85;91.12
71764;BME280;59602;52.142;5.408;2023-02-12T03:17:53;103963.75;;;6.86;91.13
71764;BME280;59602;52.142;5.408;2023-02-12T03:20:24;103966.72;;;6.85;91.40
71764;BME280;59602;52.142;5.408;2023-02-12T03:22:57;103964.00;;;6.85;91.25
71764;BME280;59602;52.142;5.408;2023-02-12T03:25:32;103959.44;;;6.85;91.24
71764;BME280;59602;52.142;5.408;2023-02-12T03:28:05;103965.66;;;6.86;91.24
71764;BME280;59602;52.142;5.408;2023-02-12T03:30:43;103964.84;;;6.85;91.29
71764;BME280;59602;52.142;5.408;2023-02-12T03:33:24;103972.97;;;6.85;91.09
71764;BME280;59602;52.142;5.408;2023-02-12T03:36:01;103978.38;;;6.85;91.34
71764;BME280;59602;52.142;5.408;2023-02-12T03:38:36;103971.88;;;6.86;91.56
71764;BME280;59602;52.142;5.408;2023-02-12T03:41:10;103971.88;;;6.86;91.60
71764;BME280;59602;52.142;5.408;2023-02-12T03:43:49;103968.88;;;6.88;91.32
71764;BME280;59602;52.142;5.408;2023-02-12T03:46:24;103965.34;;;6.88;91.41
71764;BME280;59602;52.142;5.408;2023-02-12T03:49:04;103979.72;;;6.88;91.48
71764;BME280;59602;52.142;5.408;2023-02-12T03:51:37;103971.59;;;6.88;91.67
71764;BME280;59602;52.142;5.408;2023-02-12T03:54:07;103976.72;;;6.90;91.87
71764;BME280;59602;52.142;5.408;2023-02-12T03:56:55;103981.59;;;6.93;91.98
71764;BME280;59602;52.142;5.408;2023-02-12T03:59:24;103980.50;;;6.94;91.79
71764;BME280;59602;52.142;5.408;2023-02-12T04:01:53;103982.94;;;6.95;92.01
71764;BME280;59602;52.142;5.408;2023-02-12T04:04:22;103990.25;;;6.95;91.85
71764;BME280;59602;52.142;5.408;2023-02-12T04:06:50;103988.59;;;6.94;92.00
71764;BME280;59602;52.142;5.408;2023-02-12T04:09:19;103985.09;;;6.93;92.34
71764;BME280;59602;52.142;5.408;2023-02-12T04:17:13;103995.38;;;6.91;92.27
71764;BME280;59602;52.142;5.408;2023-02-12T04:20:06;103994.31;;;6.92;92.45
71764;BME280;59602;52.142;5.408;2023-02-12T04:27:47;104001.06;;;6.90;92.37
71764;BME280;59602;52.142;5.408;2023-02-12T04:30:22;104008.09;;;6.91;92.55
71764;BME280;59602;52.142;5.408;2023-02-12T04:32:53;103994.56;;;6.91;92.22
71764;BME280;59602;52.142;5.408;2023-02-12T04:35:50;104015.94;;;6.92;92.29
71764;BME280;59602;52.142;5.408;2023-02-12T04:38:26;104009.69;;;6.92;92.28
71764;BME280;59602;52.142;5.408;2023-02-12T04:40:55;104005.13;;;6.92;92.58
71764;BME280;59602;52.142;5.408;2023-02-12T04:43:28;104010.53;;;6.92;92.55
71764;BME280;59602;52.142;5.408;2023-02-12T04:45:55;104015.94;;;6.92;92.19
71764;BME280;59602;52.142;5.408;2023-02-12T04:48:22;104018.66;;;6.92;92.25
71764;BME280;59602;52.142;5.408;2023-02-12T04:50:50;104015.94;;;6.92;92.56
71764;BME280;59602;52.142;5.408;2023-02-12T04:53:16;104022.44;;;6.91;92.33
71764;BME280;59602;52.142;5.408;2023-02-12T04:55:44;104021.09;;;6.89;92.31
71764;BME280;59602;52.142;5.408;2023-02-12T04:58:10;104020.00;;;6.90;92.59
71764;BME280;59602;52.142;5.408;2023-02-12T05:00:37;104014.56;;;6.90;92.24
71764;BME280;59602;52.142;5.408;2023-02-12T05:03:04;104015.41;;;6.90;92.44
71764;BME280;59602;52.142;5.408;2023-02-12T05:05:30;104015.69;;;6.89;92.77
71764;BME280;59602;52.142;5.408;2023-02-12T05:07:57;104021.09;;;6.89;92.40
71764;BME280;59602;52.142;5.408;2023-02-12T05:10:25;104014.88;;;6.88;92.60
71764;BME280;59602;52.142;5.408;2023-02-12T05:12:52;104016.75;;;6.88;92.36
71764;BME280;59602;52.142;5.408;2023-02-12T05:15:20;104024.31;;;6.91;92.65
71764;BME280;59602;52.142;5.408;2023-02-12T05:17:46;104025.41;;;6.90;92.62
71764;BME280;59602;52.142;5.408;2023-02-12T05:20:13;104018.13;;;6.90;92.21
71764;BME280;59602;52.142;5.408;2023-02-12T05:22:40;104021.88;;;6.89;92.27
71764;BME280;59602;52.142;5.408;2023-02-12T05:25:07;104014.56;;;6.90;92.59
71764;BME280;59602;52.142;5.408;2023-02-12T05:27:33;104018.13;;;6.90;92.41
71764;BME280;59602;52.142;5.408;2023-02-12T05:30:00;104023.53;;;6.90;92.70
71764;BME280;59602;52.142;5.408;2023-02-12T05:32:27;104026.22;;;6.90;92.61
71764;BME280;59602;52.142;5.408;2023-02-12T05:34:54;104030.81;;;6.90;92.77
71764;BME280;59602;52.142;5.408;2023-02-12T05:37:20;104027.84;;;6.91;92.56
71764;BME280;59602;52.142;5.408;2023-02-12T05:39:48;104026.22;;;6.90;92.57
71764;BME280;59602;52.142;5.408;2023-02-12T05:42:15;104037.84;;;6.91;92.41
71764;BME280;59602;52.142;5.408;2023-02-12T05:44:42;104026.22;;;6.90;92.46
71764;BME280;59602;52.142;5.408;2023-02-12T05:47:08;104030.53;;;6.91;92.98
71764;BME280;59602;52.142;5.408;2023-02-12T05:49:35;104039.47;;;6.92;92.79
71764;BME280;59602;52.142;5.408;2023-02-12T05:52:03;104029.75;;;6.91;92.70
71764;BME280;59602;52.142;5.408;2023-02-12T05:54:29;104030.53;;;6.91;92.79
71764;BME280;59602;52.142;5.408;2023-02-12T05:56:56;104034.34;;;6.90;92.67
71764;BME280;59602;52.142;5.408;2023-02-12T05:59:22;104028.41;;;6.88;92.46
71764;BME280;59602;52.142;5.408;2023-02-12T06:01:50;104033.81;;;6.88;92.67
71764;BME280;59602;52.142;5.408;2023-02-12T06:04:21;104032.16;;;6.87;92.66
71764;BME280;59602;52.142;5.408;2023-02-12T06:06:51;104030.81;;;6.90;92.86
71764;BME280;59602;52.142;5.408;2023-02-12T06:09:18;104033.50;;;6.90;92.80
71764;BME280;59602;52.142;5.408;2023-02-12T06:11:45;104022.97;;;6.88;92.72
71764;BME280;59602;52.142;5.408;2023-02-12T06:14:14;104036.22;;;6.90;92.62
71764;BME280;59602;52.142;5.408;2023-02-12T06:16:46;104033.81;;;6.88;92.70
71764;BME280;59602;52.142;5.408;2023-02-12T06:19:13;104037.03;;;6.90;92.95
71764;BME280;59602;52.142;5.408;2023-02-12T06:21:40;104037.03;;;6.90;92.58
71764;BME280;59602;52.142;5.408;2023-02-12T06:24:09;104037.03;;;6.90;92.85
71764;BME280;59602;52.142;5.408;2023-02-12T06:26:37;104037.31;;;6.89;92.81
71764;BME280;59602;52.142;5.408;2023-02-12T06:29:04;104036.22;;;6.90;92.96
71764;BME280;59602;52.142;5.408;2023-02-12T06:31:34;104030.81;;;6.90;92.45
71764;BME280;59602;52.142;5.408;2023-02-12T06:34:05;104037.03;;;6.90;92.93
71764;BME280;59602;52.142;5.408;2023-02-12T06:36:32;104035.16;;;6.91;92.82
71764;BME280;59602;52.142;5.408;2023-02-12T06:39:00;104032.44;;;6.91;92.35
71764;BME280;59602;52.142;5.408;2023-02-12T06:41:28;104028.41;;;6.88;92.79
71764;BME280;59602;52.142;5.408;2023-02-12T06:43:54;104032.97;;;6.88;92.44
71764;BME280;59602;52.142;5.408;2023-02-12T06:46:22;104041.09;;;6.88;92.36
71764;BME280;59602;52.142;5.408;2023-02-12T06:48:52;104035.69;;;6.88;92.27
71764;BME280;59602;52.142;5.408;2023-02-12T06:51:19;104041.91;;;6.88;92.46
71764;BME280;59602;52.142;5.408;2023-02-12T06:53:50;104047.34;;;6.88;92.74
71764;BME280;59602;52.142;5.408;2023-02-12T06:56:19;104050.03;;;6.88;92.68
71764;BME280;59602;52.142;5.408;2023-02-12T06:58:50;104051.09;;;6.87;92.83
71764;BME280;59602;52.142;5.408;2023-02-12T07:01:19;104055.72;;;6.86;92.51
71764;BME280;59602;52.142;5.408;2023-02-12T07:03:48;104057.63;;;6.86;92.89
71764;BME280;59602;52.142;5.408;2023-02-12T07:06:15;104058.41;;;6.86;92.79
71764;BME280;59602;52.142;5.408;2023-02-12T07:08:42;104059.22;;;6.87;92.75
71764;BME280;59602;52.142;5.408;2023-02-12T07:11:09;104052.75;;;6.88;92.59
71764;BME280;59602;52.142;5.408;2023-02-12T07:13:36;104058.41;;;6.86;92.63
71764;BME280;59602;52.142;5.408;2023-02-12T07:16:05;104058.41;;;6.86;92.75
71764;BME280;59602;52.142;5.408;2023-02-12T07:18:33;104057.63;;;6.86;92.65
71764;BME280;59602;52.142;5.408;2023-02-12T07:21:00;104059.50;;;6.85;92.76
71764;BME280;59602;52.142;5.408;2023-02-12T07:23:27;104070.34;;;6.85;92.44
71764;BME280;59602;52.142;5.408;2023-02-12T07:25:58;104068.13;;;6.88;92.47
71764;BME280;59602;52.142;5.408;2023-02-12T07:28:26;104066.25;;;6.88;92.58
71764;BME280;59602;52.142;5.408;2023-02-12T07:30:53;104077.88;;;6.89;92.67
71764;BME280;59602;52.142;5.408;2023-02-12T07:33:21;104089.25;;;6.91;93.05
71764;BME280;59602;52.142;5.408;2023-02-12T07:35:47;104083.84;;;6.91;92.73
71764;BME280;59602;52.142;5.408;2023-02-12T07:38:15;104091.69;;;6.92;92.60
71764;BME280;59602;52.142;5.408;2023-02-12T07:40:41;104092.50;;;6.93;92.92
71764;BME280;59602;52.142;5.408;2023-02-12T07:43:08;104085.19;;;6.93;92.44
71764;BME280;59602;52.142;5.408;2023-02-12T07:45:36;104088.44;;;6.95;92.57
71764;BME280;59602;52.142;5.408;2023-02-12T07:48:02;104083.81;;;6.96;92.39
71764;BME280;59602;52.142;5.408;2023-02-12T07:50:29;104090.88;;;6.97;92.25
71764;BME280;59602;52.142;5.408;2023-02-12T07:52:55;104093.84;;;6.95;92.07
71764;BME280;59602;52.142;5.408;2023-02-12T07:55:22;104095.72;;;6.95;92.01
71764;BME280;59602;52.142;5.408;2023-02-12T07:57:48;104091.66;;;6.97;91.80
71764;BME280;59602;52.142;5.408;2023-02-12T08:00:15;104103.84;;;7.00;92.15
71764;BME280;59602;52.142;5.408;2023-02-12T08:02:42;104095.44;;;7.01;91.79
71764;BME280;59602;52.142;5.408;2023-02-12T08:05:08;104095.16;;;7.03;91.69
71764;BME280;59602;52.142;5.408;2023-02-12T08:07:35;104096.78;;;7.04;91.64
71764;BME280;59602;52.142;5.408;2023-02-12T08:10:02;104103.53;;;7.06;91.56
71764;BME280;59602;52.142;5.408;2023-02-12T08:12:28;104107.59;;;7.09;91.80
71764;BME280;59602;52.142;5.408;2023-02-12T08:14:55;104114.66;;;7.10;92.02
71764;BME280;59602;52.142;5.408;2023-02-12T08:17:21;104112.44;;;7.12;91.90
71764;BME280;59602;52.142;5.408;2023-02-12T08:19:49;104114.09;;;7.13;91.77
71764;BME280;59602;52.142;5.408;2023-02-12T08:22:15;104121.09;;;7.14;91.70
71764;BME280;59602;52.142;5.408;2023-02-12T08:24:43;104122.75;;;7.15;91.66
71764;BME280;59602;52.142;5.408;2023-02-12T08:27:09;104120.84;;;7.16;91.14
71764;BME280;59602;52.142;5.408;2023-02-12T08:29:36;104117.88;;;7.17;91.49
71764;BME280;59602;52.142;5.408;2023-02-12T08:32:03;104123.28;;;7.17;91.31
71764;BME280;59602;52.142;5.408;2023-02-12T08:34:33;104123.28;;;7.17;90.79
71764;BME280;59602;52.142;5.408;2023-02-12T08:37:01;104125.44;;;7.20;90.68
71764;BME280;59602;52.142;5.408;2023-02-12T08:39:29;104126.75;;;7.23;90.44
71764;BME280;59602;52.142;5.408;2023-02-12T08:41:58;104132.72;;;7.25;90.57
71764;BME280;59602;52.142;5.408;2023-02-12T08:44:25;104140.56;;;7.26;90.86
71764;BME280;59602;52.142;5.408;2023-02-12T08:46:52;104135.97;;;7.27;90.86
71764;BME280;59602;52.142;5.408;2023-02-12T08:49:23;104140.31;;;7.28;91.11
71764;BME280;59602;52.142;5.408;2023-02-12T08:51:52;104148.13;;;7.30;90.97
71764;BME280;59602;52.142;5.408;2023-02-12T08:54:21;104151.38;;;7.32;91.13
71764;BME280;59602;52.142;5.408;2023-02-12T08:56:49;104143.25;;;7.32;91.12
71764;BME280;59602;52.142;5.408;2023-02-12T08:59:19;104146.75;;;7.32;91.20
71764;BME280;59602;52.142;5.408;2023-02-12T09:01:49;104151.66;;;7.35;91.17
71764;BME280;59602;52.142;5.408;2023-02-12T09:04:19;104152.19;;;7.37;90.94
71764;BME280;59602;52.142;5.408;2023-02-12T09:06:47;104146.78;;;7.37;90.69
71764;BME280;59602;52.142;5.408;2023-02-12T09:09:14;104145.69;;;7.38;90.74
71764;BME280;59602;52.142;5.408;2023-02-12T09:11:42;104148.13;;;7.40;90.57
71764;BME280;59602;52.142;5.408;2023-02-12T09:14:13;104147.00;;;7.41;90.46
71764;BME280;59602;52.142;5.408;2023-02-12T09:16:40;104145.94;;;7.42;90.24
71764;BME280;59602;52.142;5.408;2023-02-12T09:19:08;104151.59;;;7.45;90.07
71764;BME280;59602;52.142;5.408;2023-02-12T09:21:36;104154.03;;;7.47;89.73
71764;BME280;59602;52.142;5.408;2023-02-12T09:24:03;104152.97;;;7.48;89.78
71764;BME280;59602;52.142;5.408;2023-02-12T09:26:30;104144.56;;;7.49;89.75
71764;BME280;59602;52.142;5.408;2023-02-12T09:28:57;104162.69;;;7.49;89.76
71764;BME280;59602;52.142;5.408;2023-02-12T09:31:26;104157.03;;;7.51;89.83
71764;BME280;59602;52.142;5.408;2023-02-12T09:33:56;104159.16;;;7.54;89.79
71764;BME280;59602;52.142;5.408;2023-02-12T09:36:24;104154.56;;;7.54;89.63
71764;BME280;59602;52.142;5.408;2023-02-12T09:38:50;104153.47;;;7.55;89.66
71764;BME280;59602;52.142;5.408;2023-02-12T09:43:59;104155.63;;;7.58;89.30
71764;BME280;59602;52.142;5.408;2023-02-12T09:46:32;104156.16;;;7.60;89.27
71764;BME280;59602;52.142;5.408;2023-02-12T09:49:07;104164.56;;;7.64;89.11
71764;BME280;59602;52.142;5.408;2023-02-12T09:51:37;104155.31;;;7.65;88.96
71764;BME280;59602;52.142;5.408;2023-02-12T09:54:08;104160.75;;;7.65;88.85
71764;BME280;59602;52.142;5.408;2023-02-12T09:56:39;104154.53;;;7.64;88.69
71764;BME280;59602;52.142;5.408;2023-02-12T09:59:10;104152.09;;;7.68;88.89
71764;BME280;59602;52.142;5.408;2023-02-12T10:01:39;104159.38;;;7.73;88.93
71764;BME280;59602;52.142;5.408;2023-02-12T10:04:06;104156.66;;;7.73;88.94
71764;BME280;59602;52.142;5.408;2023-02-12T10:06:47;104158.00;;;7.75;88.88
71764;BME280;59602;52.142;5.408;2023-02-12T10:09:29;104155.84;;;7.77;88.53
71764;BME280;59602;52.142;5.408;2023-02-12T10:12:06;104150.94;;;7.79;88.25
71764;BME280;59602;52.142;5.408;2023-02-12T10:17:43;104146.03;;;7.86;87.83
71764;BME280;59602;52.142;5.408;2023-02-12T10:23:24;104147.91;;;7.91;87.90
71764;BME280;59602;52.142;5.408;2023-02-12T10:25:57;104147.09;;;7.90;87.91
71764;BME280;59602;52.142;5.408;2023-02-12T10:28:32;104149.50;;;7.92;87.74
71764;BME280;59602;52.142;5.408;2023-02-12T10:31:06;104155.19;;;7.96;87.72
71764;BME280;59602;52.142;5.408;2023-02-12T10:33:40;104151.69;;;7.95;87.31
71764;BME280;59602;52.142;5.408;2023-02-12T10:41:49;104161.38;;;8.01;86.52
71764;BME280;59602;52.142;5.408;2023-02-12T10:45:24;104154.63;;;8.04;86.44
71764;BME280;59602;52.142;5.408;2023-02-12T10:48:04;104153.25;;;8.06;86.51
71764;BME280;59602;52.142;5.408;2023-02-12T10:50:56;104147.53;;;8.08;86.63
71764;BME280;59602;52.142;5.408;2023-02-12T10:53:31;104148.06;;;8.10;86.38
71764;BME280;59602;52.142;5.408;2023-02-12T10:58:39;104153.47;;;8.15;86.22
71764;BME280;59602;52.142;5.408;2023-02-12T11:01:28;104151.56;;;8.16;85.83
71764;BME280;59602;52.142;5.408;2023-02-12T11:03:57;104149.66;;;8.16;85.33
71764;BME280;59602;52.142;5.408;2023-02-12T11:06:27;104146.69;;;8.18;85.66
71764;BME280;59602;52.142;5.408;2023-02-12T11:08:56;104151.25;;;8.22;85.49
71764;BME280;59602;52.142;5.408;2023-02-12T11:11:27;104155.56;;;8.23;85.32
71764;BME280;59602;52.142;5.408;2023-02-12T11:14:02;104157.19;;;8.24;84.84
71764;BME280;59602;52.142;5.408;2023-02-12T11:16:37;104152.31;;;8.26;84.86
71764;BME280;59602;52.142;5.408;2023-02-12T11:19:09;104146.59;;;8.28;85.02
71764;BME280;59602;52.142;5.408;2023-02-12T11:21:45;104138.97;;;8.30;84.72
71764;BME280;59602;52.142;5.408;2023-02-12T11:26:47;104144.38;;;8.35;84.69
71764;BME280;59602;52.142;5.408;2023-02-12T11:29:20;104134.34;;;8.36;84.44
71764;BME280;59602;52.142;5.408;2023-02-12T11:32:06;104139.47;;;8.37;84.65
71764;BME280;59602;52.142;5.408;2023-02-12T11:34:35;104141.91;;;8.39;84.04
71764;BME280;59602;52.142;5.408;2023-02-12T11:37:02;104135.97;;;8.42;83.79
71764;BME280;59602;52.142;5.408;2023-02-12T11:39:30;104140.28;;;8.43;83.85
71764;BME280;59602;52.142;5.408;2023-02-12T11:42:02;104142.72;;;8.44;83.63
71764;BME280;59602;52.142;5.408;2023-02-12T11:44:37;104137.00;;;8.46;83.67
71764;BME280;59602;52.142;5.408;2023-02-12T11:47:08;104134.00;;;8.47;83.48
71764;BME280;59602;52.142;5.408;2023-02-12T11:49:40;104128.31;;;8.49;83.49
71764;BME280;59602;52.142;5.408;2023-02-12T11:52:19;104135.06;;;8.51;83.04
71764;BME280;59602;52.142;5.408;2023-02-12T11:54:48;104133.16;;;8.52;83.13
71764;BME280;59602;52.142;5.408;2023-02-12T11:57:36;104128.53;;;8.52;82.80
71764;BME280;59602;52.142;5.408;2023-02-12T12:00:11;104127.47;;;8.54;82.92
71764;BME280;59602;52.142;5.408;2023-02-12T12:02:44;104128.25;;;8.54;82.26
71764;BME280;59602;52.142;5.408;2023-02-12T12:05:18;104131.22;;;8.58;82.60
71764;BME280;59602;52.142;5.408;2023-02-12T12:07:53;104130.13;;;8.59;82.47
71764;BME280;59602;52.142;5.408;2023-02-12T12:10:34;104119.00;;;8.60;82.68
71764;BME280;59602;52.142;5.408;2023-02-12T12:13:05;104112.78;;;8.60;82.08
71764;BME280;59602;52.142;5.408;2023-02-12T12:15:40;104123.03;;;8.63;82.10
71764;BME280;59602;52.142;5.408;2023-02-12T12:18:36;104105.66;;;8.64;81.50
71764;BME280;59602;52.142;5.408;2023-02-12T12:21:37;104114.31;;;8.66;81.49
71764;BME280;59602;52.142;5.408;2023-02-12T12:24:19;104108.91;;;8.66;80.73
71764;BME280;59602;52.142;5.408;2023-02-12T12:26:53;104105.91;;;8.67;81.17
71764;BME280;59602;52.142;5.408;2023-02-12T12:29:34;104114.84;;;8.68;81.05
71764;BME280;59602;52.142;5.408;2023-02-12T12:32:04;104104.53;;;8.70;81.52
71764;BME280;59602;52.142;5.408;2023-02-12T12:34:33;104097.19;;;8.70;81.21
71764;BME280;59602;52.142;5.408;2023-02-12T12:50:42;104095.78;;;8.78;80.30
71764;BME280;59602;52.142;5.408;2023-02-12T12:56:28;104085.97;;;8.82;80.45
71764;BME280;59602;52.142;5.408;2023-02-12T12:59:10;104087.56;;;8.83;80.09
71764;BME280;59602;52.142;5.408;2023-02-12T13:01:56;104082.44;;;8.82;79.91
71764;BME280;59602;52.142;5.408;2023-02-12T13:04:43;104087.56;;;8.83;80.03
71764;BME280;59602;52.142;5.408;2023-02-12T13:12:30;104071.81;;;8.85;79.63
71764;BME280;59602;52.142;5.408;2023-02-12T13:15:08;104071.03;;;8.85;79.34
71764;BME280;59602;52.142;5.408;2023-02-12T13:17:42;104072.09;;;8.84;79.37
71764;BME280;59602;52.142;5.408;2023-02-12T13:25:33;104069.09;;;8.85;79.09
71764;BME280;59602;52.142;5.408;2023-02-12T13:28:04;104066.13;;;8.87;79.58
71764;BME280;59602;52.142;5.408;2023-02-12T13:30:38;104068.03;;;8.86;79.46
71764;BME280;59602;52.142;5.408;2023-02-12T13:33:12;104065.31;;;8.86;79.13
71764;BME280;59602;52.142;5.408;2023-02-12T13:35:44;104065.59;;;8.85;78.81
71764;BME280;59602;52.142;5.408;2023-02-12T13:38:19;104065.31;;;8.86;78.86
71764;BME280;59602;52.142;5.408;2023-02-12T13:40:47;104063.41;;;8.87;78.99
71764;BME280;59602;52.142;5.408;2023-02-12T13:46:07;104056.94;;;8.83;78.34
71764;BME280;59602;52.142;5.408;2023-02-12T13:48:47;104052.31;;;8.83;78.62
71764;BME280;59602;52.142;5.408;2023-02-12T13:51:38;104046.88;;;8.83;78.39
71764;BME280;59602;52.142;5.408;2023-02-12T13:54:30;104043.88;;;8.85;78.34
71764;BME280;59602;52.142;5.408;2023-02-12T13:57:01;104045.50;;;8.86;78.66
71764;BME280;59602;52.142;5.408;2023-02-12T14:01:59;104045.50;;;8.86;78.43
71764;BME280;59602;52.142;5.408;2023-02-12T14:07:01;104038.75;;;8.83;77.86
71764;BME280;59602;52.142;5.408;2023-02-12T14:09:35;104040.38;;;8.84;78.38
71764;BME280;59602;52.142;5.408;2023-02-12T14:12:05;104040.38;;;8.84;78.67
71764;BME280;59602;52.142;5.408;2023-02-12T14:14:38;104038.19;;;8.86;78.46
71764;BME280;59602;52.142;5.408;2023-02-12T14:25:04;104032.00;;;8.81;78.27
71764;BME280;59602;52.142;5.408;2023-02-12T14:27:52;104030.66;;;8.78;77.92
71764;BME280;59602;52.142;5.408;2023-02-12T14:30:31;104026.03;;;8.79;77.98
71764;BME280;59602;52.142;5.408;2023-02-12T14:33:10;104026.31;;;8.77;78.29
71764;BME280;59602;52.142;5.408;2023-02-12T14:35:40;104022.00;;;8.76;78.56
71764;BME280;59602;52.142;5.408;2023-02-12T14:43:28;104024.19;;;8.74;78.21
71764;BME280;59602;52.142;5.408;2023-02-12T14:45:57;104019.88;;;8.73;78.37